sensor_id;sensor_type;location;lat;lon;timestamp;temperature;humidity
6486;DHT22;3276;48.490;9.222;2024-01-15T00:02:15;-1.50;1.00
6486;DHT22;3276;48.490;9.222;2024-01-15T00:04:41;-1.50;1.00
6486;DHT22;3276;48.490;9.222;2024-01-15T00:07:07;-1.40;1.00
6486;DHT22;3276;48.490;9.222;2024-01-15T00:09:33;-1.30;1.00
6486;DHT22;3276;48.490;9.222;2024-01-15T00:11:59;-1.20;1.00
6486;DHT22;3276;48.490;9.222;2024-01-15T00:14:26;-1.20;1.00
6486;DHT22;3276;48.490;9.222;2024-01-15T00:16:52;-1.10;1.00
6486;DHT22;3276;48.490;9.222;2024-01-15T00:19:21;-1.10;1.00
6486;DHT22;3276;48.490;9.222;2024-01-15T00:21:47;-1.00;1.00
6486;DHT22;3276;48.490;9.222;2024-01-15T00:24:12;-1.00;1.00
6486;DHT22;3276;48.490;9.222;2024-01-15T00:26:38;-0.90;1.00
6486;DHT22;3276;48.490;9.222;2024-01-15T00:29:03;-0.90;1.00
6486;DHT22;3276;48.490;9.222;2024-01-15T00:31:29;-0.90;1.00
6486;DHT22;3276;48.490;9.222;2024-01-15T00:33:56;-0.90;1.00
6486;DHT22;3276;48.490;9.222;2024-01-15T00:36:23;-0.80;1.00
6486;DHT22;3276;48.490;9.222;2024-01-15T00:38:49;-0.80;1.00
6486;DHT22;3276;48.490;9.222;2024-01-15T00:41:15;-0.80;1.00
6486;DHT22;3276;48.490;9.222;2024-01-15T00:43:41;-0.80;1.00
6486;DHT22;3276;48.490;9.222;2024-01-15T00:46:07;-0.80;1.00
6486;DHT22;3276;48.490;9.222;2024-01-15T00:48:32;-0.80;1.00
6486;DHT22;3276;48.490;9.222;2024-01-15T00:50:58;-0.70;1.00
6486;DHT22;3276;48.490;9.222;2024-01-15T00:53:32;-0.70;1.00
6486;DHT22;3276;48.490;9.222;2024-01-15T00:55:58;-0.80;1.00
6486;DHT22;3276;48.490;9.222;2024-01-15T00:58:23;-0.80;1.00
6486;DHT22;3276;48.490;9.222;2024-01-15T01:00:49;-0.70;1.00
6486;DHT22;3276;48.490;9.222;2024-01-15T01:03:15;-0.70;1.00
6486;DHT22;3276;48.490;9.222;2024-01-15T01:05:41;-0.70;1.00
6486;DHT22;3276;48.490;9.222;2024-01-15T01:08:07;-0.70;1.00
6486;DHT22;3276;48.490;9.222;2024-01-15T01:10:32;-0.70;1.00
6486;DHT22;3276;48.490;9.222;2024-01-15T01:12:58;-0.70;1.00
6486;DHT22;3276;48.490;9.222;2024-01-15T01:15:23;-0.70;1.00
6486;DHT22;3276;48.490;9.222;2024-01-15T01:17:55;-0.60;1.00
6486;DHT22;3276;48.490;9.222;2024-01-15T01:20:21;-0.60;1.00
6486;DHT22;3276;48.490;9.222;2024-01-15T01:22:46;-0.60;1.00
6486;DHT22;3276;48.490;9.222;2024-01-15T01:25:12;-0.60;1.00
6486;DHT22;3276;48.490;9.222;2024-01-15T01:27:38;-0.60;1.00
6486;DHT22;3276;48.490;9.222;2024-01-15T01:30:04;-0.60;1.00
6486;DHT22;3276;48.490;9.222;2024-01-15T01:32:30;-0.60;1.00
6486;DHT22;3276;48.490;9.222;2024-01-15T01:34:55;-0.60;1.00
6486;DHT22;3276;48.490;9.222;2024-01-15T01:37:21;-0.50;1.00
6486;DHT22;3276;48.490;9.222;2024-01-15T01:39:46;-0.50;1.00
6486;DHT22;3276;48.490;9.222;2024-01-15T01:42:12;-0.50;1.00
6486;DHT22;3276;48.490;9.222;2024-01-15T01:44:38;-0.60;1.00
6486;DHT22;3276;48.490;9.222;2024-01-15T01:47:04;-0.60;1.00
6486;DHT22;3276;48.490;9.222;2024-01-15T01:49:30;-0.60;1.00
6486;DHT22;3276;48.490;9.222;2024-01-15T01:51:57;-0.60;1.00
6486;DHT22;3276;48.490;9.222;2024-01-15T01:54:25;-0.50;1.00
6486;DHT22;3276;48.490;9.222;2024-01-15T01:56:51;-0.50;1.00
6486;DHT22;3276;48.490;9.222;2024-01-15T01:59:17;-0.60;1.00
6486;DHT22;3276;48.490;9.222;2024-01-15T02:01:44;-0.50;1.00
6486;DHT22;3276;48.490;9.222;2024-01-15T02:04:13;-0.60;1.00
6486;DHT22;3276;48.490;9.222;2024-01-15T02:06:39;-0.60;1.00
6486;DHT22;3276;48.490;9.222;2024-01-15T02:09:04;-0.50;1.00
6486;DHT22;3276;48.490;9.222;2024-01-15T02:11:31;-0.50;1.00
6486;DHT22;3276;48.490;9.222;2024-01-15T02:13:57;-0.50;1.00
6486;DHT22;3276;48.490;9.222;2024-01-15T02:16:22;-0.50;1.00
6486;DHT22;3276;48.490;9.222;2024-01-15T02:18:48;-0.50;1.00
6486;DHT22;3276;48.490;9.222;2024-01-15T02:21:13;-0.50;1.00
6486;DHT22;3276;48.490;9.222;2024-01-15T02:23:39;-0.60;1.00
6486;DHT22;3276;48.490;9.222;2024-01-15T02:26:05;-0.60;1.00
6486;DHT22;3276;48.490;9.222;2024-01-15T02:28:32;-0.60;1.00
6486;DHT22;3276;48.490;9.222;2024-01-15T02:30:58;-0.50;1.00
6486;DHT22;3276;48.490;9.222;2024-01-15T02:33:24;-0.50;1.00
6486;DHT22;3276;48.490;9.222;2024-01-15T02:35:49;-0.50;1.00
6486;DHT22;3276;48.490;9.222;2024-01-15T02:38:15;-0.50;1.00
6486;DHT22;3276;48.490;9.222;2024-01-15T02:40:41;-0.50;1.00
6486;DHT22;3276;48.490;9.222;2024-01-15T02:43:07;-0.50;1.00
6486;DHT22;3276;48.490;9.222;2024-01-15T02:45:32;-0.50;1.00
6486;DHT22;3276;48.490;9.222;2024-01-15T02:47:58;-0.60;1.00
6486;DHT22;3276;48.490;9.222;2024-01-15T02:50:24;-0.60;1.00
6486;DHT22;3276;48.490;9.222;2024-01-15T02:52:50;-0.60;1.00
6486;DHT22;3276;48.490;9.222;2024-01-15T02:55:16;-0.60;1.00
6486;DHT22;3276;48.490;9.222;2024-01-15T02:57:41;-0.70;1.00
6486;DHT22;3276;48.490;9.222;2024-01-15T03:00:07;-0.80;1.00
6486;DHT22;3276;48.490;9.222;2024-01-15T03:02:36;-0.80;1.00
6486;DHT22;3276;48.490;9.222;2024-01-15T03:05:02;-0.90;1.00
6486;DHT22;3276;48.490;9.222;2024-01-15T03:07:28;-0.90;1.00
6486;DHT22;3276;48.490;9.222;2024-01-15T03:09:53;-0.90;1.00
6486;DHT22;3276;48.490;9.222;2024-01-15T03:12:19;-0.90;1.00
6486;DHT22;3276;48.490;9.222;2024-01-15T03:14:44;-0.80;1.00
6486;DHT22;3276;48.490;9.222;2024-01-15T03:17:13;-0.80;1.00
6486;DHT22;3276;48.490;9.222;2024-01-15T03:19:39;-0.80;1.00
6486;DHT22;3276;48.490;9.222;2024-01-15T03:22:04;-0.80;1.00
6486;DHT22;3276;48.490;9.222;2024-01-15T03:24:33;-0.80;1.00
6486;DHT22;3276;48.490;9.222;2024-01-15T03:26:58;-0.70;1.00
6486;DHT22;3276;48.490;9.222;2024-01-15T03:29:24;-0.70;1.00
6486;DHT22;3276;48.490;9.222;2024-01-15T03:31:49;-0.70;1.00
6486;DHT22;3276;48.490;9.222;2024-01-15T03:34:15;-0.70;1.00
6486;DHT22;3276;48.490;9.222;2024-01-15T03:36:40;-0.80;1.00
6486;DHT22;3276;48.490;9.222;2024-01-15T03:39:06;-0.80;1.00
6486;DHT22;3276;48.490;9.222;2024-01-15T03:41:33;-0.80;1.00
6486;DHT22;3276;48.490;9.222;2024-01-15T03:43:58;-0.80;1.00
6486;DHT22;3276;48.490;9.222;2024-01-15T03:46:24;-0.80;1.00
6486;DHT22;3276;48.490;9.222;2024-01-15T03:48:50;-0.80;1.00
6486;DHT22;3276;48.490;9.222;2024-01-15T03:51:17;-0.70;1.00
6486;DHT22;3276;48.490;9.222;2024-01-15T03:53:43;-0.70;1.00
6486;DHT22;3276;48.490;9.222;2024-01-15T03:56:08;-0.60;1.00
6486;DHT22;3276;48.490;9.222;2024-01-15T03:58:37;-0.60;1.00
6486;DHT22;3276;48.490;9.222;2024-01-15T04:01:03;-0.60;1.00
6486;DHT22;3276;48.490;9.222;2024-01-15T04:03:28;-0.50;1.00
6486;DHT22;3276;48.490;9.222;2024-01-15T04:05:57;-0.50;1.00
6486;DHT22;3276;48.490;9.222;2024-01-15T04:08:22;-0.50;1.00
6486;DHT22;3276;48.490;9.222;2024-01-15T04:10:48;-0.50;1.00
6486;DHT22;3276;48.490;9.222;2024-01-15T04:13:13;-0.50;1.00
6486;DHT22;3276;48.490;9.222;2024-01-15T04:15:39;-0.40;1.00
6486;DHT22;3276;48.490;9.222;2024-01-15T04:18:05;-0.40;1.00
6486;DHT22;3276;48.490;9.222;2024-01-15T04:20:31;-0.40;1.00
6486;DHT22;3276;48.490;9.222;2024-01-15T04:22:56;-0.40;1.00
6486;DHT22;3276;48.490;9.222;2024-01-15T04:25:25;-0.40;1.00
6486;DHT22;3276;48.490;9.222;2024-01-15T04:27:50;-0.40;1.00
6486;DHT22;3276;48.490;9.222;2024-01-15T04:30:16;-0.40;1.00
6486;DHT22;3276;48.490;9.222;2024-01-15T04:32:42;-0.40;1.00
6486;DHT22;3276;48.490;9.222;2024-01-15T04:35:07;-0.40;1.00
6486;DHT22;3276;48.490;9.222;2024-01-15T04:37:33;-0.40;1.00
6486;DHT22;3276;48.490;9.222;2024-01-15T04:39:58;-0.30;1.00
6486;DHT22;3276;48.490;9.222;2024-01-15T04:42:24;-0.40;1.00
6486;DHT22;3276;48.490;9.222;2024-01-15T04:44:49;-0.40;1.00
6486;DHT22;3276;48.490;9.222;2024-01-15T04:47:15;-0.40;1.00
6486;DHT22;3276;48.490;9.222;2024-01-15T04:49:41;-0.50;1.50
6486;DHT22;3276;48.490;9.222;2024-01-15T04:52:06;-0.50;1.90
6486;DHT22;3276;48.490;9.222;2024-01-15T04:54:35;-0.60;1.90
6486;DHT22;3276;48.490;9.222;2024-01-15T04:57:00;-0.50;2.70
6486;DHT22;3276;48.490;9.222;2024-01-15T04:59:26;-0.60;2.30
6486;DHT22;3276;48.490;9.222;2024-01-15T05:01:51;-0.60;2.50
6486;DHT22;3276;48.490;9.222;2024-01-15T05:04:17;-0.60;3.30
6486;DHT22;3276;48.490;9.222;2024-01-15T05:06:42;-0.60;3.70
6486;DHT22;3276;48.490;9.222;2024-01-15T05:09:08;-0.60;3.90
6486;DHT22;3276;48.490;9.222;2024-01-15T05:11:34;-0.70;4.50
6486;DHT22;3276;48.490;9.222;2024-01-15T05:14:00;-0.70;5.30
6486;DHT22;3276;48.490;9.222;2024-01-15T05:16:25;-0.70;5.50
6486;DHT22;3276;48.490;9.222;2024-01-15T05:18:51;-0.60;6.40
6486;DHT22;3276;48.490;9.222;2024-01-15T05:21:16;-0.70;6.20
6486;DHT22;3276;48.490;9.222;2024-01-15T05:23:42;-0.60;6.30
6486;DHT22;3276;48.490;9.222;2024-01-15T05:26:07;-0.60;6.60
6486;DHT22;3276;48.490;9.222;2024-01-15T05:28:34;-0.60;6.90
6486;DHT22;3276;48.490;9.222;2024-01-15T05:31:00;-0.60;7.20
6486;DHT22;3276;48.490;9.222;2024-01-15T05:33:25;-0.60;7.40
6486;DHT22;3276;48.490;9.222;2024-01-15T05:35:51;-0.60;7.60
6486;DHT22;3276;48.490;9.222;2024-01-15T05:38:17;-0.60;7.90
6486;DHT22;3276;48.490;9.222;2024-01-15T05:40:42;-0.60;8.00
6486;DHT22;3276;48.490;9.222;2024-01-15T05:43:08;-0.60;7.20
6486;DHT22;3276;48.490;9.222;2024-01-15T05:45:34;-0.60;7.00
6486;DHT22;3276;48.490;9.222;2024-01-15T05:48:00;-0.60;7.80
6486;DHT22;3276;48.490;9.222;2024-01-15T05:50:26;-0.50;7.40
6486;DHT22;3276;48.490;9.222;2024-01-15T05:52:52;-0.50;6.70
6486;DHT22;3276;48.490;9.222;2024-01-15T05:55:17;-0.60;6.60
6486;DHT22;3276;48.490;9.222;2024-01-15T05:57:44;-0.60;6.60
6486;DHT22;3276;48.490;9.222;2024-01-15T06:00:10;-0.60;6.80
6486;DHT22;3276;48.490;9.222;2024-01-15T06:02:37;-0.50;5.70
6486;DHT22;3276;48.490;9.222;2024-01-15T06:05:04;-0.50;5.60
6486;DHT22;3276;48.490;9.222;2024-01-15T06:07:29;-0.50;4.80
6486;DHT22;3276;48.490;9.222;2024-01-15T06:09:55;-0.50;4.80
6486;DHT22;3276;48.490;9.222;2024-01-15T06:12:22;-0.40;4.50
6486;DHT22;3276;48.490;9.222;2024-01-15T06:14:48;-0.40;4.10
6486;DHT22;3276;48.490;9.222;2024-01-15T06:17:13;-0.40;4.80
6486;DHT22;3276;48.490;9.222;2024-01-15T06:19:39;-0.40;4.50
6486;DHT22;3276;48.490;9.222;2024-01-15T06:22:04;-0.50;4.90
6486;DHT22;3276;48.490;9.222;2024-01-15T06:24:30;-0.50;4.70
6486;DHT22;3276;48.490;9.222;2024-01-15T06:26:56;-0.50;4.80
6486;DHT22;3276;48.490;9.222;2024-01-15T06:29:21;-0.50;4.30
6486;DHT22;3276;48.490;9.222;2024-01-15T06:31:47;-0.50;4.40
6486;DHT22;3276;48.490;9.222;2024-01-15T06:34:12;-0.50;4.40
6486;DHT22;3276;48.490;9.222;2024-01-15T06:36:38;-0.50;4.40
6486;DHT22;3276;48.490;9.222;2024-01-15T06:39:03;-0.50;4.40
6486;DHT22;3276;48.490;9.222;2024-01-15T06:41:29;-0.50;3.70
6486;DHT22;3276;48.490;9.222;2024-01-15T06:43:55;-0.50;3.60
6486;DHT22;3276;48.490;9.222;2024-01-15T06:46:21;-0.50;3.70
6486;DHT22;3276;48.490;9.222;2024-01-15T06:48:47;-0.50;3.20
6486;DHT22;3276;48.490;9.222;2024-01-15T06:51:13;-0.50;3.50
6486;DHT22;3276;48.490;9.222;2024-01-15T06:53:39;-0.50;3.60
6486;DHT22;3276;48.490;9.222;2024-01-15T06:56:05;-0.40;2.90
6486;DHT22;3276;48.490;9.222;2024-01-15T06:58:33;-0.50;2.60
6486;DHT22;3276;48.490;9.222;2024-01-15T07:00:59;-0.40;3.50
6486;DHT22;3276;48.490;9.222;2024-01-15T07:03:25;-0.40;2.40
6486;DHT22;3276;48.490;9.222;2024-01-15T07:05:51;-0.40;1.90
6486;DHT22;3276;48.490;9.222;2024-01-15T07:08:16;-0.40;2.50
6486;DHT22;3276;48.490;9.222;2024-01-15T07:10:42;-0.40;1.40
6486;DHT22;3276;48.490;9.222;2024-01-15T07:13:09;-0.40;1.00
6486;DHT22;3276;48.490;9.222;2024-01-15T07:15:34;-0.40;1.20
6486;DHT22;3276;48.490;9.222;2024-01-15T07:18:00;-0.30;1.10
6486;DHT22;3276;48.490;9.222;2024-01-15T07:20:25;-0.40;1.00
6486;DHT22;3276;48.490;9.222;2024-01-15T07:22:51;-0.30;1.00
6486;DHT22;3276;48.490;9.222;2024-01-15T07:25:17;-0.20;1.00
6486;DHT22;3276;48.490;9.222;2024-01-15T07:27:42;-0.20;1.00
6486;DHT22;3276;48.490;9.222;2024-01-15T07:30:11;-0.20;1.00
6486;DHT22;3276;48.490;9.222;2024-01-15T07:32:36;-0.20;1.00
6486;DHT22;3276;48.490;9.222;2024-01-15T07:35:02;-0.10;1.00
6486;DHT22;3276;48.490;9.222;2024-01-15T07:37:28;-0.20;1.00
6486;DHT22;3276;48.490;9.222;2024-01-15T07:39:54;-0.10;1.00
6486;DHT22;3276;48.490;9.222;2024-01-15T07:42:19;-0.10;1.00
6486;DHT22;3276;48.490;9.222;2024-01-15T07:44:45;-0.10;1.00
6486;DHT22;3276;48.490;9.222;2024-01-15T07:47:10;0.00;1.00
6486;DHT22;3276;48.490;9.222;2024-01-15T07:49:36;0.10;1.00
6486;DHT22;3276;48.490;9.222;2024-01-15T07:52:01;0.10;1.00
6486;DHT22;3276;48.490;9.222;2024-01-15T07:54:27;0.10;1.00
6486;DHT22;3276;48.490;9.222;2024-01-15T07:57:01;0.20;1.00
6486;DHT22;3276;48.490;9.222;2024-01-15T07:59:28;0.30;1.00
6486;DHT22;3276;48.490;9.222;2024-01-15T08:01:54;0.40;1.00
6486;DHT22;3276;48.490;9.222;2024-01-15T08:04:20;0.50;1.00
6486;DHT22;3276;48.490;9.222;2024-01-15T08:06:46;0.50;1.00
6486;DHT22;3276;48.490;9.222;2024-01-15T08:09:11;0.60;1.00
6486;DHT22;3276;48.490;9.222;2024-01-15T08:11:41;0.70;1.00
6486;DHT22;3276;48.490;9.222;2024-01-15T08:14:07;0.70;1.00
6486;DHT22;3276;48.490;9.222;2024-01-15T08:16:33;0.70;1.00
6486;DHT22;3276;48.490;9.222;2024-01-15T08:18:58;0.80;1.00
6486;DHT22;3276;48.490;9.222;2024-01-15T08:21:24;0.80;1.00
6486;DHT22;3276;48.490;9.222;2024-01-15T08:23:50;0.80;1.00
6486;DHT22;3276;48.490;9.222;2024-01-15T08:26:15;0.80;1.00
6486;DHT22;3276;48.490;9.222;2024-01-15T08:28:41;0.90;1.00
6486;DHT22;3276;48.490;9.222;2024-01-15T08:31:10;0.90;1.00
6486;DHT22;3276;48.490;9.222;2024-01-15T08:33:36;0.90;1.00
6486;DHT22;3276;48.490;9.222;2024-01-15T08:36:04;0.90;1.00
6486;DHT22;3276;48.490;9.222;2024-01-15T08:38:31;0.90;1.00
6486;DHT22;3276;48.490;9.222;2024-01-15T08:40:56;1.00;1.00
6486;DHT22;3276;48.490;9.222;2024-01-15T08:43:24;1.00;1.00
6486;DHT22;3276;48.490;9.222;2024-01-15T08:45:50;1.00;1.00
6486;DHT22;3276;48.490;9.222;2024-01-15T08:48:16;1.10;1.00
6486;DHT22;3276;48.490;9.222;2024-01-15T08:50:42;1.10;1.00
6486;DHT22;3276;48.490;9.222;2024-01-15T08:53:07;1.20;1.00
6486;DHT22;3276;48.490;9.222;2024-01-15T08:55:33;1.20;1.00
6486;DHT22;3276;48.490;9.222;2024-01-15T08:57:59;1.20;1.00
6486;DHT22;3276;48.490;9.222;2024-01-15T09:00:24;1.20;1.00
6486;DHT22;3276;48.490;9.222;2024-01-15T09:02:50;1.30;1.00
6486;DHT22;3276;48.490;9.222;2024-01-15T09:05:15;1.30;1.00
6486;DHT22;3276;48.490;9.222;2024-01-15T09:07:41;1.20;1.00
6486;DHT22;3276;48.490;9.222;2024-01-15T09:10:07;1.30;1.00
6486;DHT22;3276;48.490;9.222;2024-01-15T09:12:32;1.30;1.00
6486;DHT22;3276;48.490;9.222;2024-01-15T09:14:58;1.20;1.00
6486;DHT22;3276;48.490;9.222;2024-01-15T09:17:23;1.50;1.00
6486;DHT22;3276;48.490;9.222;2024-01-15T09:19:49;1.50;1.00
6486;DHT22;3276;48.490;9.222;2024-01-15T09:22:15;1.40;1.00
6486;DHT22;3276;48.490;9.222;2024-01-15T09:24:46;1.50;1.00
6486;DHT22;3276;48.490;9.222;2024-01-15T09:27:13;1.60;1.00
6486;DHT22;3276;48.490;9.222;2024-01-15T09:29:38;1.60;1.00
6486;DHT22;3276;48.490;9.222;2024-01-15T09:32:06;1.60;1.00
6486;DHT22;3276;48.490;9.222;2024-01-15T09:34:35;1.60;1.00
6486;DHT22;3276;48.490;9.222;2024-01-15T09:37:01;1.70;1.00
6486;DHT22;3276;48.490;9.222;2024-01-15T09:39:28;1.70;1.00
6486;DHT22;3276;48.490;9.222;2024-01-15T09:41:54;1.90;1.00
6486;DHT22;3276;48.490;9.222;2024-01-15T09:44:20;1.90;1.00
6486;DHT22;3276;48.490;9.222;2024-01-15T09:46:49;1.90;1.00
6486;DHT22;3276;48.490;9.222;2024-01-15T09:49:17;1.90;1.00
6486;DHT22;3276;48.490;9.222;2024-01-15T09:51:44;1.90;1.00
6486;DHT22;3276;48.490;9.222;2024-01-15T09:54:10;1.90;1.00
6486;DHT22;3276;48.490;9.222;2024-01-15T09:56:39;2.20;1.00
6486;DHT22;3276;48.490;9.222;2024-01-15T09:59:05;2.20;1.00
6486;DHT22;3276;48.490;9.222;2024-01-15T10:01:32;2.30;1.00
6486;DHT22;3276;48.490;9.222;2024-01-15T10:03:58;2.40;1.00
6486;DHT22;3276;48.490;9.222;2024-01-15T10:06:26;2.30;1.00
6486;DHT22;3276;48.490;9.222;2024-01-15T10:08:54;2.50;1.00
6486;DHT22;3276;48.490;9.222;2024-01-15T10:11:20;2.40;1.00
6486;DHT22;3276;48.490;9.222;2024-01-15T10:13:47;2.40;1.00
6486;DHT22;3276;48.490;9.222;2024-01-15T10:16:12;2.50;1.00
6486;DHT22;3276;48.490;9.222;2024-01-15T10:18:38;2.50;1.00
6486;DHT22;3276;48.490;9.222;2024-01-15T10:21:08;2.70;1.00
6486;DHT22;3276;48.490;9.222;2024-01-15T10:23:33;2.80;1.00
6486;DHT22;3276;48.490;9.222;2024-01-15T10:25:59;2.70;1.00
6486;DHT22;3276;48.490;9.222;2024-01-15T10:28:28;2.80;1.00
6486;DHT22;3276;48.490;9.222;2024-01-15T10:30:57;2.80;1.00
6486;DHT22;3276;48.490;9.222;2024-01-15T10:33:23;2.80;1.00
6486;DHT22;3276;48.490;9.222;2024-01-15T10:35:56;2.50;1.00
6486;DHT22;3276;48.490;9.222;2024-01-15T10:38:22;2.40;1.00
6486;DHT22;3276;48.490;9.222;2024-01-15T10:40:51;2.40;1.00
6486;DHT22;3276;48.490;9.222;2024-01-15T10:43:17;2.40;1.00
6486;DHT22;3276;48.490;9.222;2024-01-15T10:45:45;2.60;1.00
6486;DHT22;3276;48.490;9.222;2024-01-15T10:48:10;2.80;1.00
6486;DHT22;3276;48.490;9.222;2024-01-15T10:50:36;2.90;1.00
6486;DHT22;3276;48.490;9.222;2024-01-15T10:53:03;3.10;1.00
6486;DHT22;3276;48.490;9.222;2024-01-15T10:55:30;2.90;1.00
6486;DHT22;3276;48.490;9.222;2024-01-15T10:57:57;2.90;1.00
6486;DHT22;3276;48.490;9.222;2024-01-15T11:00:22;3.00;1.00
6486;DHT22;3276;48.490;9.222;2024-01-15T11:02:48;2.90;1.00
6486;DHT22;3276;48.490;9.222;2024-01-15T11:05:14;3.00;1.00
6486;DHT22;3276;48.490;9.222;2024-01-15T11:07:40;2.80;1.00
6486;DHT22;3276;48.490;9.222;2024-01-15T11:10:07;2.70;1.00
6486;DHT22;3276;48.490;9.222;2024-01-15T11:12:35;2.50;1.00
6486;DHT22;3276;48.490;9.222;2024-01-15T11:15:02;2.50;1.00
6486;DHT22;3276;48.490;9.222;2024-01-15T11:17:59;2.50;1.00
6486;DHT22;3276;48.490;9.222;2024-01-15T11:20:31;2.30;1.00
6486;DHT22;3276;48.490;9.222;2024-01-15T11:22:58;2.30;1.00
6486;DHT22;3276;48.490;9.222;2024-01-15T11:25:34;2.30;1.00
6486;DHT22;3276;48.490;9.222;2024-01-15T11:28:00;2.20;1.00
6486;DHT22;3276;48.490;9.222;2024-01-15T11:30:26;2.30;1.00
6486;DHT22;3276;48.490;9.222;2024-01-15T11:32:52;2.10;1.00
6486;DHT22;3276;48.490;9.222;2024-01-15T11:35:17;2.10;1.00
6486;DHT22;3276;48.490;9.222;2024-01-15T11:37:57;2.20;1.00
6486;DHT22;3276;48.490;9.222;2024-01-15T11:43:02;2.40;1.00
6486;DHT22;3276;48.490;9.222;2024-01-15T11:45:30;2.40;1.00
6486;DHT22;3276;48.490;9.222;2024-01-15T11:50:49;2.20;1.00
6486;DHT22;3276;48.490;9.222;2024-01-15T11:53:26;2.20;1.00
6486;DHT22;3276;48.490;9.222;2024-01-15T11:55:57;2.20;1.00
6486;DHT22;3276;48.490;9.222;2024-01-15T11:58:23;2.30;1.00
6486;DHT22;3276;48.490;9.222;2024-01-15T12:00:49;2.10;1.00
6486;DHT22;3276;48.490;9.222;2024-01-15T12:03:16;2.10;1.00
6486;DHT22;3276;48.490;9.222;2024-01-15T12:05:42;2.20;1.00
6486;DHT22;3276;48.490;9.222;2024-01-15T12:08:08;2.20;1.00
6486;DHT22;3276;48.490;9.222;2024-01-15T12:10:40;2.30;1.00
6486;DHT22;3276;48.490;9.222;2024-01-15T12:15:35;2.50;1.00
6486;DHT22;3276;48.490;9.222;2024-01-15T12:18:02;2.50;1.00
6486;DHT22;3276;48.490;9.222;2024-01-15T12:20:32;2.30;1.00
6486;DHT22;3276;48.490;9.222;2024-01-15T12:22:58;2.20;1.00
6486;DHT22;3276;48.490;9.222;2024-01-15T12:25:24;2.20;1.00
6486;DHT22;3276;48.490;9.222;2024-01-15T12:27:51;2.30;1.00
6486;DHT22;3276;48.490;9.222;2024-01-15T12:30:17;2.30;1.00
6486;DHT22;3276;48.490;9.222;2024-01-15T12:32:44;2.20;1.00
6486;DHT22;3276;48.490;9.222;2024-01-15T12:35:12;2.30;1.00
6486;DHT22;3276;48.490;9.222;2024-01-15T12:37:42;2.40;1.00
6486;DHT22;3276;48.490;9.222;2024-01-15T12:40:10;2.50;1.00
6486;DHT22;3276;48.490;9.222;2024-01-15T12:42:37;2.50;1.00
6486;DHT22;3276;48.490;9.222;2024-01-15T12:45:03;2.30;1.00
6486;DHT22;3276;48.490;9.222;2024-01-15T12:47:31;2.30;1.00
6486;DHT22;3276;48.490;9.222;2024-01-15T12:49:58;2.40;1.00
6486;DHT22;3276;48.490;9.222;2024-01-15T12:52:27;2.30;1.00
6486;DHT22;3276;48.490;9.222;2024-01-15T12:54:52;2.10;1.00
6486;DHT22;3276;48.490;9.222;2024-01-15T12:57:18;2.00;1.00
6486;DHT22;3276;48.490;9.222;2024-01-15T12:59:45;2.20;1.00
6486;DHT22;3276;48.490;9.222;2024-01-15T13:02:14;2.10;1.00
6486;DHT22;3276;48.490;9.222;2024-01-15T13:04:40;2.20;1.00
6486;DHT22;3276;48.490;9.222;2024-01-15T13:07:06;2.10;1.00
6486;DHT22;3276;48.490;9.222;2024-01-15T13:09:32;2.20;1.00
6486;DHT22;3276;48.490;9.222;2024-01-15T13:11:58;2.00;1.00
6486;DHT22;3276;48.490;9.222;2024-01-15T13:14:24;2.00;1.00
6486;DHT22;3276;48.490;9.222;2024-01-15T13:16:49;2.00;1.00
6486;DHT22;3276;48.490;9.222;2024-01-15T13:19:15;2.00;1.00
6486;DHT22;3276;48.490;9.222;2024-01-15T13:21:41;2.10;1.00
6486;DHT22;3276;48.490;9.222;2024-01-15T13:24:06;2.20;1.00
6486;DHT22;3276;48.490;9.222;2024-01-15T13:26:33;2.00;1.00
6486;DHT22;3276;48.490;9.222;2024-01-15T13:29:00;2.00;1.00
6486;DHT22;3276;48.490;9.222;2024-01-15T13:31:27;2.00;1.00
6486;DHT22;3276;48.490;9.222;2024-01-15T13:33:53;1.90;1.00
6486;DHT22;3276;48.490;9.222;2024-01-15T13:36:18;1.90;1.00
6486;DHT22;3276;48.490;9.222;2024-01-15T13:38:46;1.80;1.00
6486;DHT22;3276;48.490;9.222;2024-01-15T13:41:12;1.80;1.00
6486;DHT22;3276;48.490;9.222;2024-01-15T13:43:37;1.80;1.00
6486;DHT22;3276;48.490;9.222;2024-01-15T13:46:03;1.80;1.00
6486;DHT22;3276;48.490;9.222;2024-01-15T13:48:30;1.70;1.00
6486;DHT22;3276;48.490;9.222;2024-01-15T13:50:57;1.60;1.00
6486;DHT22;3276;48.490;9.222;2024-01-15T13:53:22;1.60;2.30
6486;DHT22;3276;48.490;9.222;2024-01-15T13:55:48;1.60;3.20
6486;DHT22;3276;48.490;9.222;2024-01-15T13:58:13;1.50;4.10
6486;DHT22;3276;48.490;9.222;2024-01-15T14:00:39;1.40;3.90
6486;DHT22;3276;48.490;9.222;2024-01-15T14:03:05;1.40;4.10
6486;DHT22;3276;48.490;9.222;2024-01-15T14:05:31;1.40;4.40
6486;DHT22;3276;48.490;9.222;2024-01-15T14:07:56;1.40;5.60
6486;DHT22;3276;48.490;9.222;2024-01-15T14:10:22;1.30;6.30
6486;DHT22;3276;48.490;9.222;2024-01-15T14:12:47;1.30;7.00
6486;DHT22;3276;48.490;9.222;2024-01-15T14:15:13;1.20;8.10
6486;DHT22;3276;48.490;9.222;2024-01-15T14:17:38;1.20;9.20
6486;DHT22;3276;48.490;9.222;2024-01-15T14:20:05;1.20;10.90
6486;DHT22;3276;48.490;9.222;2024-01-15T14:22:31;1.20;11.90
6486;DHT22;3276;48.490;9.222;2024-01-15T14:24:57;1.20;13.50
6486;DHT22;3276;48.490;9.222;2024-01-15T14:27:22;1.20;13.50
6486;DHT22;3276;48.490;9.222;2024-01-15T14:29:48;1.20;13.50
6486;DHT22;3276;48.490;9.222;2024-01-15T14:32:13;1.20;13.80
6486;DHT22;3276;48.490;9.222;2024-01-15T14:34:39;1.10;13.40
6486;DHT22;3276;48.490;9.222;2024-01-15T14:37:05;1.10;13.40
6486;DHT22;3276;48.490;9.222;2024-01-15T14:39:31;1.10;14.20
6486;DHT22;3276;48.490;9.222;2024-01-15T14:41:59;1.10;15.00
6486;DHT22;3276;48.490;9.222;2024-01-15T14:44:25;1.10;14.40
6486;DHT22;3276;48.490;9.222;2024-01-15T14:46:50;1.10;15.00
6486;DHT22;3276;48.490;9.222;2024-01-15T14:49:16;1.00;14.80
6486;DHT22;3276;48.490;9.222;2024-01-15T14:51:43;1.00;15.70
6486;DHT22;3276;48.490;9.222;2024-01-15T14:54:10;0.90;16.10
6486;DHT22;3276;48.490;9.222;2024-01-15T14:56:35;0.90;17.10
6486;DHT22;3276;48.490;9.222;2024-01-15T14:59:01;0.90;16.80
6486;DHT22;3276;48.490;9.222;2024-01-15T15:01:26;0.80;17.70
6486;DHT22;3276;48.490;9.222;2024-01-15T15:03:52;0.80;18.70
6486;DHT22;3276;48.490;9.222;2024-01-15T15:06:18;0.70;19.70
6486;DHT22;3276;48.490;9.222;2024-01-15T15:08:43;0.70;21.50
6486;DHT22;3276;48.490;9.222;2024-01-15T15:11:09;0.80;22.10
6486;DHT22;3276;48.490;9.222;2024-01-15T15:13:36;0.80;22.40
6486;DHT22;3276;48.490;9.222;2024-01-15T15:16:02;0.80;22.90
6486;DHT22;3276;48.490;9.222;2024-01-15T15:18:27;0.70;22.80
6486;DHT22;3276;48.490;9.222;2024-01-15T15:20:55;0.70;23.50
6486;DHT22;3276;48.490;9.222;2024-01-15T15:23:21;0.60;23.10
6486;DHT22;3276;48.490;9.222;2024-01-15T15:25:46;0.60;22.10
6486;DHT22;3276;48.490;9.222;2024-01-15T15:28:12;0.60;21.50
6486;DHT22;3276;48.490;9.222;2024-01-15T15:30:39;0.60;20.60
6486;DHT22;3276;48.490;9.222;2024-01-15T15:33:05;0.60;21.30
6486;DHT22;3276;48.490;9.222;2024-01-15T15:35:30;0.50;20.80
6486;DHT22;3276;48.490;9.222;2024-01-15T15:37:56;0.50;20.50
6486;DHT22;3276;48.490;9.222;2024-01-15T15:40:22;0.50;20.60
6486;DHT22;3276;48.490;9.222;2024-01-15T15:42:50;0.50;20.30
6486;DHT22;3276;48.490;9.222;2024-01-15T15:45:15;0.50;21.40
6486;DHT22;3276;48.490;9.222;2024-01-15T15:47:41;0.50;21.40
6486;DHT22;3276;48.490;9.222;2024-01-15T15:50:07;0.50;21.40
6486;DHT22;3276;48.490;9.222;2024-01-15T15:52:32;0.40;21.30
6486;DHT22;3276;48.490;9.222;2024-01-15T15:54:58;0.50;21.40
6486;DHT22;3276;48.490;9.222;2024-01-15T15:57:23;0.50;21.00
6486;DHT22;3276;48.490;9.222;2024-01-15T15:59:51;0.50;20.90
6486;DHT22;3276;48.490;9.222;2024-01-15T16:02:19;0.50;21.50
6486;DHT22;3276;48.490;9.222;2024-01-15T16:04:45;0.50;20.80
6486;DHT22;3276;48.490;9.222;2024-01-15T16:07:11;0.50;20.00
6486;DHT22;3276;48.490;9.222;2024-01-15T16:09:37;0.40;19.10
6486;DHT22;3276;48.490;9.222;2024-01-15T16:12:03;0.50;17.80
6486;DHT22;3276;48.490;9.222;2024-01-15T16:14:28;0.40;17.20
6486;DHT22;3276;48.490;9.222;2024-01-15T16:16:54;0.40;14.90
6486;DHT22;3276;48.490;9.222;2024-01-15T16:19:25;0.40;15.20
6486;DHT22;3276;48.490;9.222;2024-01-15T16:21:51;0.30;13.90
6486;DHT22;3276;48.490;9.222;2024-01-15T16:24:18;0.30;13.50
6486;DHT22;3276;48.490;9.222;2024-01-15T16:26:44;0.30;13.50